sensor_id;sensor_type;location;lat;lon;timestamp;temperature;humidity
19567;DHT22;9930;49.240;8.548;2022-09-02T00:01:31;20.20;58.10
19567;DHT22;9930;49.240;8.548;2022-09-02T00:04:08;20.20;58.20
19567;DHT22;9930;49.240;8.548;2022-09-02T00:06:38;20.10;58.10
19567;DHT22;9930;49.240;8.548;2022-09-02T00:09:08;20.10;58.20
19567;DHT22;9930;49.240;8.548;2022-09-02T00:11:39;20.10;58.30
19567;DHT22;9930;49.240;8.548;2022-09-02T00:14:11;20.10;58.40
19567;DHT22;9930;49.240;8.548;2022-09-02T00:17:00;20.00;58.40
19567;DHT22;9930;49.240;8.548;2022-09-02T00:19:30;20.00;58.40
19567;DHT22;9930;49.240;8.548;2022-09-02T00:22:00;20.00;58.50
19567;DHT22;9930;49.240;8.548;2022-09-02T00:24:28;19.90;58.50
19567;DHT22;9930;49.240;8.548;2022-09-02T00:26:59;20.00;58.60
19567;DHT22;9930;49.240;8.548;2022-09-02T00:29:28;19.90;58.60
19567;DHT22;9930;49.240;8.548;2022-09-02T00:31:55;19.90;58.70
19567;DHT22;9930;49.240;8.548;2022-09-02T00:34:25;19.90;58.70
19567;DHT22;9930;49.240;8.548;2022-09-02T00:36:53;19.80;58.90
19567;DHT22;9930;49.240;8.548;2022-09-02T00:39:19;19.80;58.90
19567;DHT22;9930;49.240;8.548;2022-09-02T00:41:45;19.80;59.00
19567;DHT22;9930;49.240;8.548;2022-09-02T00:44:14;19.80;59.00
19567;DHT22;9930;49.240;8.548;2022-09-02T00:46:42;19.70;59.10
19567;DHT22;9930;49.240;8.548;2022-09-02T00:49:22;19.70;59.10
19567;DHT22;9930;49.240;8.548;2022-09-02T00:52:03;19.70;59.70
19567;DHT22;9930;49.240;8.548;2022-09-02T00:54:35;19.70;59.40
19567;DHT22;9930;49.240;8.548;2022-09-02T00:57:09;19.70;59.40
19567;DHT22;9930;49.240;8.548;2022-09-02T00:59:45;19.60;59.40
19567;DHT22;9930;49.240;8.548;2022-09-02T01:02:20;19.60;59.50
19567;DHT22;9930;49.240;8.548;2022-09-02T01:04:49;19.60;59.60
19567;DHT22;9930;49.240;8.548;2022-09-02T01:07:27;19.60;59.80
19567;DHT22;9930;49.240;8.548;2022-09-02T01:10:01;19.50;59.90
19567;DHT22;9930;49.240;8.548;2022-09-02T01:12:30;19.50;60.10
19567;DHT22;9930;49.240;8.548;2022-09-02T01:14:59;19.50;60.10
19567;DHT22;9930;49.240;8.548;2022-09-02T01:17:28;19.40;60.90
19567;DHT22;9930;49.240;8.548;2022-09-02T01:20:07;19.40;60.20
19567;DHT22;9930;49.240;8.548;2022-09-02T01:22:37;19.40;60.50
19567;DHT22;9930;49.240;8.548;2022-09-02T01:25:15;19.40;60.30
19567;DHT22;9930;49.240;8.548;2022-09-02T01:27:43;19.40;60.60
19567;DHT22;9930;49.240;8.548;2022-09-02T01:30:14;19.30;60.30
19567;DHT22;9930;49.240;8.548;2022-09-02T01:32:43;19.30;60.40
19567;DHT22;9930;49.240;8.548;2022-09-02T01:35:12;19.30;60.50
19567;DHT22;9930;49.240;8.548;2022-09-02T01:37:38;19.30;60.50
19567;DHT22;9930;49.240;8.548;2022-09-02T01:40:13;19.30;60.50
19567;DHT22;9930;49.240;8.548;2022-09-02T01:42:41;19.30;60.60
19567;DHT22;9930;49.240;8.548;2022-09-02T01:45:10;19.30;60.50
19567;DHT22;9930;49.240;8.548;2022-09-02T01:47:39;19.20;60.60
19567;DHT22;9930;49.240;8.548;2022-09-02T01:50:07;19.20;60.70
19567;DHT22;9930;49.240;8.548;2022-09-02T01:52:34;19.20;60.80
19567;DHT22;9930;49.240;8.548;2022-09-02T01:55:01;19.20;60.90
19567;DHT22;9930;49.240;8.548;2022-09-02T01:57:29;19.20;60.80
19567;DHT22;9930;49.240;8.548;2022-09-02T01:59:57;19.20;60.90
19567;DHT22;9930;49.240;8.548;2022-09-02T02:02:27;19.20;61.00
19567;DHT22;9930;49.240;8.548;2022-09-02T02:04:53;19.20;60.90
19567;DHT22;9930;49.240;8.548;2022-09-02T02:07:20;19.10;60.90
19567;DHT22;9930;49.240;8.548;2022-09-02T02:09:47;19.10;60.90
19567;DHT22;9930;49.240;8.548;2022-09-02T02:12:14;19.10;60.90
19567;DHT22;9930;49.240;8.548;2022-09-02T02:14:40;19.10;60.90
19567;DHT22;9930;49.240;8.548;2022-09-02T02:17:06;19.10;61.00
19567;DHT22;9930;49.240;8.548;2022-09-02T02:19:34;19.10;61.00
19567;DHT22;9930;49.240;8.548;2022-09-02T02:22:01;19.00;60.90
19567;DHT22;9930;49.240;8.548;2022-09-02T02:24:28;19.10;61.10
19567;DHT22;9930;49.240;8.548;2022-09-02T02:26:54;19.00;61.10
19567;DHT22;9930;49.240;8.548;2022-09-02T02:29:20;19.00;61.20
19567;DHT22;9930;49.240;8.548;2022-09-02T02:31:47;19.00;61.30
19567;DHT22;9930;49.240;8.548;2022-09-02T02:34:14;19.00;61.30
19567;DHT22;9930;49.240;8.548;2022-09-02T02:36:40;19.00;61.40
19567;DHT22;9930;49.240;8.548;2022-09-02T02:39:07;19.00;61.40
19567;DHT22;9930;49.240;8.548;2022-09-02T02:41:35;18.90;61.40
19567;DHT22;9930;49.240;8.548;2022-09-02T02:44:02;18.90;61.40
19567;DHT22;9930;49.240;8.548;2022-09-02T02:46:29;18.90;61.40
19567;DHT22;9930;49.240;8.548;2022-09-02T02:48:58;18.90;61.40
19567;DHT22;9930;49.240;8.548;2022-09-02T02:51:25;18.90;61.40
19567;DHT22;9930;49.240;8.548;2022-09-02T02:53:53;18.80;61.50
19567;DHT22;9930;49.240;8.548;2022-09-02T02:56:19;18.80;61.70
19567;DHT22;9930;49.240;8.548;2022-09-02T02:58:45;18.80;61.70
19567;DHT22;9930;49.240;8.548;2022-09-02T03:01:10;18.80;61.80
19567;DHT22;9930;49.240;8.548;2022-09-02T03:03:36;18.80;61.80
19567;DHT22;9930;49.240;8.548;2022-09-02T03:06:02;18.70;61.70
19567;DHT22;9930;49.240;8.548;2022-09-02T03:08:30;18.70;61.80
19567;DHT22;9930;49.240;8.548;2022-09-02T03:11:02;18.70;62.00
19567;DHT22;9930;49.240;8.548;2022-09-02T03:13:32;18.60;62.00
19567;DHT22;9930;49.240;8.548;2022-09-02T03:16:04;18.70;62.10
19567;DHT22;9930;49.240;8.548;2022-09-02T03:18:31;18.60;62.10
19567;DHT22;9930;49.240;8.548;2022-09-02T03:21:00;18.60;62.20
19567;DHT22;9930;49.240;8.548;2022-09-02T03:23:30;18.60;62.40
19567;DHT22;9930;49.240;8.548;2022-09-02T03:26:00;18.60;62.50
19567;DHT22;9930;49.240;8.548;2022-09-02T03:28:30;18.50;62.30
19567;DHT22;9930;49.240;8.548;2022-09-02T03:31:00;18.50;62.50
19567;DHT22;9930;49.240;8.548;2022-09-02T03:33:30;18.50;62.50
19567;DHT22;9930;49.240;8.548;2022-09-02T03:36:00;18.50;62.50
19567;DHT22;9930;49.240;8.548;2022-09-02T03:38:29;18.40;62.50
19567;DHT22;9930;49.240;8.548;2022-09-02T03:41:03;18.40;62.40
19567;DHT22;9930;49.240;8.548;2022-09-02T03:43:30;18.40;62.60
19567;DHT22;9930;49.240;8.548;2022-09-02T03:46:00;18.40;62.50
19567;DHT22;9930;49.240;8.548;2022-09-02T03:48:30;18.40;62.70
19567;DHT22;9930;49.240;8.548;2022-09-02T03:51:02;18.40;62.80
19567;DHT22;9930;49.240;8.548;2022-09-02T03:53:30;18.40;63.00
19567;DHT22;9930;49.240;8.548;2022-09-02T03:56:05;18.40;62.70
19567;DHT22;9930;49.240;8.548;2022-09-02T03:58:34;18.30;62.70
19567;DHT22;9930;49.240;8.548;2022-09-02T04:01:00;18.40;62.60
19567;DHT22;9930;49.240;8.548;2022-09-02T04:03:33;18.30;62.60
19567;DHT22;9930;49.240;8.548;2022-09-02T04:06:00;18.30;62.90
19567;DHT22;9930;49.240;8.548;2022-09-02T04:08:30;18.30;62.80
19567;DHT22;9930;49.240;8.548;2022-09-02T04:10:56;18.20;62.80
19567;DHT22;9930;49.240;8.548;2022-09-02T04:13:30;18.30;62.80
19567;DHT22;9930;49.240;8.548;2022-09-02T04:16:08;18.30;62.90
19567;DHT22;9930;49.240;8.548;2022-09-02T04:22:36;18.20;63.10
19567;DHT22;9930;49.240;8.548;2022-09-02T04:25:03;18.20;62.80
19567;DHT22;9930;49.240;8.548;2022-09-02T04:27:30;18.20;62.80
19567;DHT22;9930;49.240;8.548;2022-09-02T04:30:00;18.20;63.60
19567;DHT22;9930;49.240;8.548;2022-09-02T04:32:30;18.20;62.80
19567;DHT22;9930;49.240;8.548;2022-09-02T04:35:00;18.20;62.90
19567;DHT22;9930;49.240;8.548;2022-09-02T04:37:30;18.20;63.10
19567;DHT22;9930;49.240;8.548;2022-09-02T04:40:00;18.20;63.10
19567;DHT22;9930;49.240;8.548;2022-09-02T04:42:30;18.10;63.00
19567;DHT22;9930;49.240;8.548;2022-09-02T04:45:00;18.10;63.00
19567;DHT22;9930;49.240;8.548;2022-09-02T04:47:30;18.10;63.20
19567;DHT22;9930;49.240;8.548;2022-09-02T04:50:00;18.10;63.30
19567;DHT22;9930;49.240;8.548;2022-09-02T04:52:30;18.10;63.40
19567;DHT22;9930;49.240;8.548;2022-09-02T04:54:58;18.00;63.30
19567;DHT22;9930;49.240;8.548;2022-09-02T04:57:30;18.10;63.40
19567;DHT22;9930;49.240;8.548;2022-09-02T05:00:07;18.00;63.40
19567;DHT22;9930;49.240;8.548;2022-09-02T05:02:33;18.00;63.70
19567;DHT22;9930;49.240;8.548;2022-09-02T05:05:00;18.00;63.50
19567;DHT22;9930;49.240;8.548;2022-09-02T05:07:34;18.00;63.50
19567;DHT22;9930;49.240;8.548;2022-09-02T05:10:00;18.00;63.50
19567;DHT22;9930;49.240;8.548;2022-09-02T05:12:32;18.00;63.50
19567;DHT22;9930;49.240;8.548;2022-09-02T05:15:04;18.00;63.70
19567;DHT22;9930;49.240;8.548;2022-09-02T05:17:30;18.00;63.60
19567;DHT22;9930;49.240;8.548;2022-09-02T05:20:02;18.00;63.80
19567;DHT22;9930;49.240;8.548;2022-09-02T05:22:33;18.00;63.90
19567;DHT22;9930;49.240;8.548;2022-09-02T05:25:05;18.00;63.80
19567;DHT22;9930;49.240;8.548;2022-09-02T05:27:34;18.00;63.80
19567;DHT22;9930;49.240;8.548;2022-09-02T05:30:01;18.00;63.80
19567;DHT22;9930;49.240;8.548;2022-09-02T05:32:33;18.00;63.80
19567;DHT22;9930;49.240;8.548;2022-09-02T05:35:00;18.00;63.80
19567;DHT22;9930;49.240;8.548;2022-09-02T05:37:36;18.00;63.70
19567;DHT22;9930;49.240;8.548;2022-09-02T05:40:02;18.00;63.80
19567;DHT22;9930;49.240;8.548;2022-09-02T05:42:32;18.10;63.80
19567;DHT22;9930;49.240;8.548;2022-09-02T05:45:00;18.10;63.80
19567;DHT22;9930;49.240;8.548;2022-09-02T05:47:33;18.10;63.80
19567;DHT22;9930;49.240;8.548;2022-09-02T05:50:00;18.10;63.90
19567;DHT22;9930;49.240;8.548;2022-09-02T05:52:30;18.20;63.80
19567;DHT22;9930;49.240;8.548;2022-09-02T05:55:02;18.20;63.80
19567;DHT22;9930;49.240;8.548;2022-09-02T05:57:31;18.20;63.90
19567;DHT22;9930;49.240;8.548;2022-09-02T06:00:04;18.30;64.60
19567;DHT22;9930;49.240;8.548;2022-09-02T06:02:36;18.30;63.90
19567;DHT22;9930;49.240;8.548;2022-09-02T06:05:05;18.30;63.90
19567;DHT22;9930;49.240;8.548;2022-09-02T06:07:37;18.40;64.00
19567;DHT22;9930;49.240;8.548;2022-09-02T06:10:04;18.40;64.70
19567;DHT22;9930;49.240;8.548;2022-09-02T06:12:33;18.40;63.80
19567;DHT22;9930;49.240;8.548;2022-09-02T06:15:00;18.50;63.80
19567;DHT22;9930;49.240;8.548;2022-09-02T06:17:30;18.50;63.80
19567;DHT22;9930;49.240;8.548;2022-09-02T06:20:00;18.60;63.80
19567;DHT22;9930;49.240;8.548;2022-09-02T06:22:32;18.70;64.20
19567;DHT22;9930;49.240;8.548;2022-09-02T06:25:01;18.80;64.70
19567;DHT22;9930;49.240;8.548;2022-09-02T06:27:30;19.00;65.20
19567;DHT22;9930;49.240;8.548;2022-09-02T06:30:06;19.20;65.40
19567;DHT22;9930;49.240;8.548;2022-09-02T06:32:34;19.50;65.30
19567;DHT22;9930;49.240;8.548;2022-09-02T06:35:00;19.80;65.50
19567;DHT22;9930;49.240;8.548;2022-09-02T06:37:30;20.10;65.20
19567;DHT22;9930;49.240;8.548;2022-09-02T06:40:00;20.40;64.50
19567;DHT22;9930;49.240;8.548;2022-09-02T06:42:33;20.70;64.10
19567;DHT22;9930;49.240;8.548;2022-09-02T06:45:03;20.80;63.20
19567;DHT22;9930;49.240;8.548;2022-09-02T06:47:33;21.10;62.70
19567;DHT22;9930;49.240;8.548;2022-09-02T06:50:00;21.30;62.00
19567;DHT22;9930;49.240;8.548;2022-09-02T06:52:31;21.40;61.70
19567;DHT22;9930;49.240;8.548;2022-09-02T06:55:03;21.60;61.00
19567;DHT22;9930;49.240;8.548;2022-09-02T06:57:31;21.70;60.70
19567;DHT22;9930;49.240;8.548;2022-09-02T07:00:03;21.80;60.20
19567;DHT22;9930;49.240;8.548;2022-09-02T07:02:34;21.90;59.80
19567;DHT22;9930;49.240;8.548;2022-09-02T07:05:01;22.00;59.90
19567;DHT22;9930;49.240;8.548;2022-09-02T07:07:43;22.10;59.60
19567;DHT22;9930;49.240;8.548;2022-09-02T07:10:14;22.20;59.20
19567;DHT22;9930;49.240;8.548;2022-09-02T07:12:40;22.20;58.90
19567;DHT22;9930;49.240;8.548;2022-09-02T07:15:09;22.30;58.30
19567;DHT22;9930;49.240;8.548;2022-09-02T07:17:37;22.30;57.80
19567;DHT22;9930;49.240;8.548;2022-09-02T07:20:04;22.20;57.70
19567;DHT22;9930;49.240;8.548;2022-09-02T07:22:31;22.20;57.90
19567;DHT22;9930;49.240;8.548;2022-09-02T07:25:00;22.30;58.00
19567;DHT22;9930;49.240;8.548;2022-09-02T07:27:30;22.30;57.70
19567;DHT22;9930;49.240;8.548;2022-09-02T07:30:05;22.30;57.50
19567;DHT22;9930;49.240;8.548;2022-09-02T07:32:32;22.30;57.30
19567;DHT22;9930;49.240;8.548;2022-09-02T07:35:02;22.30;57.50
19567;DHT22;9930;49.240;8.548;2022-09-02T07:37:32;22.30;57.40
19567;DHT22;9930;49.240;8.548;2022-09-02T07:40:03;22.40;57.70
19567;DHT22;9930;49.240;8.548;2022-09-02T07:42:30;22.40;57.60
19567;DHT22;9930;49.240;8.548;2022-09-02T07:45:03;22.50;57.60
19567;DHT22;9930;49.240;8.548;2022-09-02T07:47:30;22.50;57.10
19567;DHT22;9930;49.240;8.548;2022-09-02T07:50:03;22.50;57.00
19567;DHT22;9930;49.240;8.548;2022-09-02T07:52:30;22.50;56.80
19567;DHT22;9930;49.240;8.548;2022-09-02T07:55:01;22.60;56.90
19567;DHT22;9930;49.240;8.548;2022-09-02T07:57:34;22.60;56.60
19567;DHT22;9930;49.240;8.548;2022-09-02T08:00:00;22.60;56.70
19567;DHT22;9930;49.240;8.548;2022-09-02T08:02:33;22.60;57.00
19567;DHT22;9930;49.240;8.548;2022-09-02T08:05:02;22.70;56.90
19567;DHT22;9930;49.240;8.548;2022-09-02T08:07:33;22.80;56.80
19567;DHT22;9930;49.240;8.548;2022-09-02T08:10:04;22.80;56.70
19567;DHT22;9930;49.240;8.548;2022-09-02T08:12:34;22.90;56.50
19567;DHT22;9930;49.240;8.548;2022-09-02T08:15:04;23.00;56.20
19567;DHT22;9930;49.240;8.548;2022-09-02T08:17:31;23.00;56.10
19567;DHT22;9930;49.240;8.548;2022-09-02T08:20:00;23.20;56.30
19567;DHT22;9930;49.240;8.548;2022-09-02T08:22:32;23.20;56.10
19567;DHT22;9930;49.240;8.548;2022-09-02T08:25:03;23.30;56.10
19567;DHT22;9930;49.240;8.548;2022-09-02T08:27:33;23.40;55.80
19567;DHT22;9930;49.240;8.548;2022-09-02T08:30:04;23.40;55.70
19567;DHT22;9930;49.240;8.548;2022-09-02T08:32:34;23.60;55.60
19567;DHT22;9930;49.240;8.548;2022-09-02T08:35:05;23.70;55.10
19567;DHT22;9930;49.240;8.548;2022-09-02T08:37:37;23.70;54.60
19567;DHT22;9930;49.240;8.548;2022-09-02T08:40:06;23.70;54.40
19567;DHT22;9930;49.240;8.548;2022-09-02T08:42:44;23.80;54.50
19567;DHT22;9930;49.240;8.548;2022-09-02T08:48:24;23.90;53.60
19567;DHT22;9930;49.240;8.548;2022-09-02T08:51:07;24.00;53.90
19567;DHT22;9930;49.240;8.548;2022-09-02T08:56:34;24.10;54.10
19567;DHT22;9930;49.240;8.548;2022-09-02T08:59:02;24.30;53.80
19567;DHT22;9930;49.240;8.548;2022-09-02T09:01:45;24.30;53.60
19567;DHT22;9930;49.240;8.548;2022-09-02T09:04:29;24.40;53.00
19567;DHT22;9930;49.240;8.548;2022-09-02T09:07:44;24.40;52.60
19567;DHT22;9930;49.240;8.548;2022-09-02T09:10:15;24.60;52.90
19567;DHT22;9930;49.240;8.548;2022-09-02T09:18:19;24.80;52.40
19567;DHT22;9930;49.240;8.548;2022-09-02T09:20:49;24.90;52.30
19567;DHT22;9930;49.240;8.548;2022-09-02T09:23:27;25.00;52.20
19567;DHT22;9930;49.240;8.548;2022-09-02T09:28:40;25.20;51.20
19567;DHT22;9930;49.240;8.548;2022-09-02T09:31:14;25.20;51.30
19567;DHT22;9930;49.240;8.548;2022-09-02T09:34:03;25.30;51.20
19567;DHT22;9930;49.240;8.548;2022-09-02T09:39:27;25.30;51.10
19567;DHT22;9930;49.240;8.548;2022-09-02T09:42:00;25.40;50.90
19567;DHT22;9930;49.240;8.548;2022-09-02T09:44:40;25.50;51.10
19567;DHT22;9930;49.240;8.548;2022-09-02T09:47:33;25.50;50.50
19567;DHT22;9930;49.240;8.548;2022-09-02T09:50:16;25.60;50.20
19567;DHT22;9930;49.240;8.548;2022-09-02T09:52:43;25.70;49.90
19567;DHT22;9930;49.240;8.548;2022-09-02T09:55:18;25.80;50.20
19567;DHT22;9930;49.240;8.548;2022-09-02T09:57:47;25.80;49.10
19567;DHT22;9930;49.240;8.548;2022-09-02T10:00:30;25.90;49.60
19567;DHT22;9930;49.240;8.548;2022-09-02T10:03:04;25.90;48.90
19567;DHT22;9930;49.240;8.548;2022-09-02T10:05:37;25.90;48.90
19567;DHT22;9930;49.240;8.548;2022-09-02T10:13:33;26.10;48.20
19567;DHT22;9930;49.240;8.548;2022-09-02T10:18:49;26.10;48.10
19567;DHT22;9930;49.240;8.548;2022-09-02T10:37:18;26.50;47.90
19567;DHT22;9930;49.240;8.548;2022-09-02T10:42:39;26.70;47.70
19567;DHT22;9930;49.240;8.548;2022-09-02T10:45:45;26.70;47.10
19567;DHT22;9930;49.240;8.548;2022-09-02T10:57:22;26.90;46.50
19567;DHT22;9930;49.240;8.548;2022-09-02T11:00:13;27.00;46.30
19567;DHT22;9930;49.240;8.548;2022-09-02T11:05:21;27.10;46.30
19567;DHT22;9930;49.240;8.548;2022-09-02T11:08:55;27.10;45.10
19567;DHT22;9930;49.240;8.548;2022-09-02T11:11:36;27.20;44.70
19567;DHT22;9930;49.240;8.548;2022-09-02T11:14:21;27.20;44.20
19567;DHT22;9930;49.240;8.548;2022-09-02T11:17:08;27.20;44.50
19567;DHT22;9930;49.240;8.548;2022-09-02T11:20:10;27.20;44.10
19567;DHT22;9930;49.240;8.548;2022-09-02T11:25:41;27.30;44.60
19567;DHT22;9930;49.240;8.548;2022-09-02T11:34:35;27.40;43.50
19567;DHT22;9930;49.240;8.548;2022-09-02T11:37:23;27.40;43.80
19567;DHT22;9930;49.240;8.548;2022-09-02T11:40:06;27.50;43.90
19567;DHT22;9930;49.240;8.548;2022-09-02T11:51:09;27.80;42.70
19567;DHT22;9930;49.240;8.548;2022-09-02T11:54:01;27.80;42.80
19567;DHT22;9930;49.240;8.548;2022-09-02T11:56:38;27.90;42.30
19567;DHT22;9930;49.240;8.548;2022-09-02T11:59:07;27.90;42.10
19567;DHT22;9930;49.240;8.548;2022-09-02T12:02:07;27.90;42.20
19567;DHT22;9930;49.240;8.548;2022-09-02T12:04:33;27.90;42.30
19567;DHT22;9930;49.240;8.548;2022-09-02T12:20:07;28.00;40.80
19567;DHT22;9930;49.240;8.548;2022-09-02T12:22:39;28.00;41.40
19567;DHT22;9930;49.240;8.548;2022-09-02T12:27:50;28.00;40.70
19567;DHT22;9930;49.240;8.548;2022-09-02T12:33:34;28.10;40.60
19567;DHT22;9930;49.240;8.548;2022-09-02T12:36:05;28.10;40.20
19567;DHT22;9930;49.240;8.548;2022-09-02T12:38:38;28.10;39.90
19567;DHT22;9930;49.240;8.548;2022-09-02T12:41:17;28.10;40.30
19567;DHT22;9930;49.240;8.548;2022-09-02T12:47:07;28.10;39.90
19567;DHT22;9930;49.240;8.548;2022-09-02T12:50:16;28.10;40.10
19567;DHT22;9930;49.240;8.548;2022-09-02T12:52:51;28.10;40.00
19567;DHT22;9930;49.240;8.548;2022-09-02T12:55:33;28.10;39.70
19567;DHT22;9930;49.240;8.548;2022-09-02T12:58:11;28.20;40.30
19567;DHT22;9930;49.240;8.548;2022-09-02T13:16:14;28.20;38.80
19567;DHT22;9930;49.240;8.548;2022-09-02T13:22:17;28.20;38.20
19567;DHT22;9930;49.240;8.548;2022-09-02T13:27:59;28.10;38.50
19567;DHT22;9930;49.240;8.548;2022-09-02T13:31:04;28.10;38.50
19567;DHT22;9930;49.240;8.548;2022-09-02T13:33:40;28.10;37.90
19567;DHT22;9930;49.240;8.548;2022-09-02T13:36:08;28.10;38.60
19567;DHT22;9930;49.240;8.548;2022-09-02T13:38:34;28.20;38.50
19567;DHT22;9930;49.240;8.548;2022-09-02T13:41:01;28.20;38.30
19567;DHT22;9930;49.240;8.548;2022-09-02T13:43:31;28.10;38.10
19567;DHT22;9930;49.240;8.548;2022-09-02T13:46:01;28.20;38.00
19567;DHT22;9930;49.240;8.548;2022-09-02T13:48:32;28.10;37.80
19567;DHT22;9930;49.240;8.548;2022-09-02T13:51:13;28.20;37.90
19567;DHT22;9930;49.240;8.548;2022-09-02T13:53:42;28.10;37.50
19567;DHT22;9930;49.240;8.548;2022-09-02T13:56:14;28.20;37.60
19567;DHT22;9930;49.240;8.548;2022-09-02T13:58:51;28.20;37.50
19567;DHT22;9930;49.240;8.548;2022-09-02T14:01:33;28.20;37.50
19567;DHT22;9930;49.240;8.548;2022-09-02T14:04:04;28.10;37.70
19567;DHT22;9930;49.240;8.548;2022-09-02T14:06:37;28.20;37.70
19567;DHT22;9930;49.240;8.548;2022-09-02T14:09:09;28.20;37.40
19567;DHT22;9930;49.240;8.548;2022-09-02T14:11:43;28.20;37.40
19567;DHT22;9930;49.240;8.548;2022-09-02T14:14:15;28.20;37.30
19567;DHT22;9930;49.240;8.548;2022-09-02T14:16:43;28.20;37.00
19567;DHT22;9930;49.240;8.548;2022-09-02T14:21:46;28.20;37.10
19567;DHT22;9930;49.240;8.548;2022-09-02T14:24:21;28.20;36.90
19567;DHT22;9930;49.240;8.548;2022-09-02T14:26:51;28.20;36.80
19567;DHT22;9930;49.240;8.548;2022-09-02T14:29:21;28.20;36.90
19567;DHT22;9930;49.240;8.548;2022-09-02T14:32:14;28.20;37.00
19567;DHT22;9930;49.240;8.548;2022-09-02T14:34:47;28.10;36.60
19567;DHT22;9930;49.240;8.548;2022-09-02T14:37:21;28.20;37.00
19567;DHT22;9930;49.240;8.548;2022-09-02T14:40:06;28.20;36.70
19567;DHT22;9930;49.240;8.548;2022-09-02T14:42:50;28.10;36.40
19567;DHT22;9930;49.240;8.548;2022-09-02T14:47:51;28.10;36.10
19567;DHT22;9930;49.240;8.548;2022-09-02T14:50:31;28.10;36.20
19567;DHT22;9930;49.240;8.548;2022-09-02T14:53:05;28.10;35.80
19567;DHT22;9930;49.240;8.548;2022-09-02T14:55:52;28.10;36.00
19567;DHT22;9930;49.240;8.548;2022-09-02T14:58:21;28.10;36.00
19567;DHT22;9930;49.240;8.548;2022-09-02T15:00:51;28.10;36.40
19567;DHT22;9930;49.240;8.548;2022-09-02T15:03:21;28.10;36.20
19567;DHT22;9930;49.240;8.548;2022-09-02T15:05:48;28.10;36.00
19567;DHT22;9930;49.240;8.548;2022-09-02T15:08:14;28.10;35.90
19567;DHT22;9930;49.240;8.548;2022-09-02T15:10:41;28.10;35.90
19567;DHT22;9930;49.240;8.548;2022-09-02T15:13:31;28.10;35.60
19567;DHT22;9930;49.240;8.548;2022-09-02T15:16:01;28.00;35.10
19567;DHT22;9930;49.240;8.548;2022-09-02T15:18:30;28.10;35.60
19567;DHT22;9930;49.240;8.548;2022-09-02T15:20:58;28.10;35.70
19567;DHT22;9930;49.240;8.548;2022-09-02T15:23:30;28.10;35.70
19567;DHT22;9930;49.240;8.548;2022-09-02T15:26:01;28.10;35.70
19567;DHT22;9930;49.240;8.548;2022-09-02T15:28:30;28.00;35.20
19567;DHT22;9930;49.240;8.548;2022-09-02T15:31:03;28.00;35.40
19567;DHT22;9930;49.240;8.548;2022-09-02T15:33:38;28.00;35.20
19567;DHT22;9930;49.240;8.548;2022-09-02T15:36:11;28.00;35.50
19567;DHT22;9930;49.240;8.548;2022-09-02T15:38:39;28.00;35.20
19567;DHT22;9930;49.240;8.548;2022-09-02T15:41:18;28.00;35.20
19567;DHT22;9930;49.240;8.548;2022-09-02T15:43:49;27.90;35.00
19567;DHT22;9930;49.240;8.548;2022-09-02T15:46:22;27.90;34.90
19567;DHT22;9930;49.240;8.548;2022-09-02T15:48:50;27.90;34.90
19567;DHT22;9930;49.240;8.548;2022-09-02T15:51:19;27.90;34.90
19567;DHT22;9930;49.240;8.548;2022-09-02T15:54:02;27.90;35.10
19567;DHT22;9930;49.240;8.548;2022-09-02T15:56:34;27.80;34.90
19567;DHT22;9930;49.240;8.548;2022-09-02T15:59:09;27.80;35.20
19567;DHT22;9930;49.240;8.548;2022-09-02T16:01:42;27.80;35.30
19567;DHT22;9930;49.240;8.548;2022-09-02T16:04:13;27.80;35.30
19567;DHT22;9930;49.240;8.548;2022-09-02T16:06:41;27.80;35.20
19567;DHT22;9930;49.240;8.548;2022-09-02T16:09:10;27.80;35.20
19567;DHT22;9930;49.240;8.548;2022-09-02T16:11:44;27.80;35.30
19567;DHT22;9930;49.240;8.548;2022-09-02T16:14:14;27.80;35.20
19567;DHT22;9930;49.240;8.548;2022-09-02T16:16:41;27.70;35.20
19567;DHT22;9930;49.240;8.548;2022-09-02T16:19:10;27.70;35.20
19567;DHT22;9930;49.240;8.548;2022-09-02T16:21:39;27.70;35.00
19567;DHT22;9930;49.240;8.548;2022-09-02T16:24:06;27.70;35.00
19567;DHT22;9930;49.240;8.548;2022-09-02T16:26:37;27.70;35.00
19567;DHT22;9930;49.240;8.548;2022-09-02T16:29:07;27.70;34.90
19567;DHT22;9930;49.240;8.548;2022-09-02T16:31:36;27.60;34.90
19567;DHT22;9930;49.240;8.548;2022-09-02T16:34:16;27.60;35.00
19567;DHT22;9930;49.240;8.548;2022-09-02T16:36:47;27.50;34.80
19567;DHT22;9930;49.240;8.548;2022-09-02T16:39:15;27.50;34.90
19567;DHT22;9930;49.240;8.548;2022-09-02T16:41:44;27.50;35.10
19567;DHT22;9930;49.240;8.548;2022-09-02T16:44:16;27.40;35.00
19567;DHT22;9930;49.240;8.548;2022-09-02T16:46:50;27.40;34.90
19567;DHT22;9930;49.240;8.548;2022-09-02T16:49:20;27.30;35.00
19567;DHT22;9930;49.240;8.548;2022-09-02T16:51:48;27.30;35.10
19567;DHT22;9930;49.240;8.548;2022-09-02T16:54:16;27.20;35.10
19567;DHT22;9930;49.240;8.548;2022-09-02T16:56:44;27.20;35.10
19567;DHT22;9930;49.240;8.548;2022-09-02T16:59:11;27.10;35.10
19567;DHT22;9930;49.240;8.548;2022-09-02T17:01:38;27.10;35.20
19567;DHT22;9930;49.240;8.548;2022-09-02T17:04:04;27.00;35.20
19567;DHT22;9930;49.240;8.548;2022-09-02T17:06:31;27.00;35.30
19567;DHT22;9930;49.240;8.548;2022-09-02T17:09:02;26.90;35.20
19567;DHT22;9930;49.240;8.548;2022-09-02T17:11:34;26.90;35.20
19567;DHT22;9930;49.240;8.548;2022-09-02T17:14:06;26.80;35.30
19567;DHT22;9930;49.240;8.548;2022-09-02T17:16:36;26.80;35.40
19567;DHT22;9930;49.240;8.548;2022-09-02T17:19:09;26.80;35.40
19567;DHT22;9930;49.240;8.548;2022-09-02T17:21:45;26.70;35.50
19567;DHT22;9930;49.240;8.548;2022-09-02T17:24:23;26.70;35.50
19567;DHT22;9930;49.240;8.548;2022-09-02T17:26:57;26.70;35.60
19567;DHT22;9930;49.240;8.548;2022-09-02T17:29:27;26.60;35.60
19567;DHT22;9930;49.240;8.548;2022-09-02T17:31:56;26.60;35.60
19567;DHT22;9930;49.240;8.548;2022-09-02T17:34:30;26.60;35.70
19567;DHT22;9930;49.240;8.548;2022-09-02T17:37:01;26.50;35.60
19567;DHT22;9930;49.240;8.548;2022-09-02T17:39:30;26.50;35.70
19567;DHT22;9930;49.240;8.548;2022-09-02T17:42:02;26.40;35.70
19567;DHT22;9930;49.240;8.548;2022-09-02T17:44:35;26.40;35.70
19567;DHT22;9930;49.240;8.548;2022-09-02T17:47:05;26.40;35.90
19567;DHT22;9930;49.240;8.548;2022-09-02T17:49:36;26.30;35.80
19567;DHT22;9930;49.240;8.548;2022-09-02T17:52:06;26.30;35.80
19567;DHT22;9930;49.240;8.548;2022-09-02T17:54:36;26.30;35.90
19567;DHT22;9930;49.240;8.548;2022-09-02T17:57:45;26.20;35.90
19567;DHT22;9930;49.240;8.548;2022-09-02T18:00:23;26.10;36.00
19567;DHT22;9930;49.240;8.548;2022-09-02T18:06:16;26.00;36.00
19567;DHT22;9930;49.240;8.548;2022-09-02T18:08:57;26.00;36.10
19567;DHT22;9930;49.240;8.548;2022-09-02T18:11:30;25.90;36.20
19567;DHT22;9930;49.240;8.548;2022-09-02T18:14:32;25.80;36.10
19567;DHT22;9930;49.240;8.548;2022-09-02T18:22:47;25.60;36.30
19567;DHT22;9930;49.240;8.548;2022-09-02T18:47:53;25.00;37.00
19567;DHT22;9930;49.240;8.548;2022-09-02T18:50:40;25.00;37.10
19567;DHT22;9930;49.240;8.548;2022-09-02T18:53:12;24.90;37.20
19567;DHT22;9930;49.240;8.548;2022-09-02T18:55:40;24.90;37.30